sensor_id;sensor_type;location;lat;lon;timestamp;pressure;altitude;pressure_sealevel;temperature;humidity
18275;BME280;19470;49.322;7.218;2023-03-31T00:01:36;97979.00;;;15.70;100.00
18275;BME280;19470;49.322;7.218;2023-03-31T00:04:08;97984.00;;;15.91;100.00
18275;BME280;19470;49.322;7.218;2023-03-31T00:06:38;97974.81;;;15.97;100.00
18275;BME280;19470;49.322;7.218;2023-03-31T00:09:08;97972.97;;;16.11;100.00
18275;BME280;19470;49.322;7.218;2023-03-31T00:11:36;97965.22;;;15.63;100.00
18275;BME280;19470;49.322;7.218;2023-03-31T00:14:03;97953.69;;;16.28;100.00
18275;BME280;19470;49.322;7.218;2023-03-31T00:16:31;97957.31;;;15.91;100.00
18275;BME280;19470;49.322;7.218;2023-03-31T00:18:58;97945.28;;;15.74;100.00
18275;BME280;19470;49.322;7.218;2023-03-31T00:21:28;97940.13;;;15.64;100.00
18275;BME280;19470;49.322;7.218;2023-03-31T00:23:59;97942.00;;;16.10;100.00
18275;BME280;19470;49.322;7.218;2023-03-31T00:26:26;97937.47;;;16.24;100.00
18275;BME280;19470;49.322;7.218;2023-03-31T00:28:54;97945.00;;;15.76;100.00
18275;BME280;19470;49.322;7.218;2023-03-31T00:31:21;97946.59;;;15.77;100.00
18275;BME280;19470;49.322;7.218;2023-03-31T00:33:48;97951.16;;;15.76;100.00
18275;BME280;19470;49.322;7.218;2023-03-31T00:36:15;97948.88;;;15.83;100.00
18275;BME280;19470;49.322;7.218;2023-03-31T00:38:46;97937.94;;;16.26;100.00
18275;BME280;19470;49.322;7.218;2023-03-31T00:41:13;97939.88;;;15.79;100.00
18275;BME280;19470;49.322;7.218;2023-03-31T00:43:40;97931.75;;;15.52;100.00
18275;BME280;19470;49.322;7.218;2023-03-31T00:46:12;97936.66;;;15.64;100.00
18275;BME280;19470;49.322;7.218;2023-03-31T00:48:46;97914.25;;;15.46;100.00
18275;BME280;19470;49.322;7.218;2023-03-31T00:51:14;97921.31;;;15.37;100.00
18275;BME280;19470;49.322;7.218;2023-03-31T00:53:41;97906.66;;;15.53;100.00
18275;BME280;19470;49.322;7.218;2023-03-31T00:56:12;97895.81;;;16.09;99.82
18275;BME280;19470;49.322;7.218;2023-03-31T00:58:41;97898.72;;;15.15;100.00
18275;BME280;19470;49.322;7.218;2023-03-31T01:01:10;97889.03;;;15.84;99.31
18275;BME280;19470;49.322;7.218;2023-03-31T01:03:38;97886.22;;;15.62;100.00
18275;BME280;19470;49.322;7.218;2023-03-31T01:06:06;97886.25;;;15.11;100.00
18275;BME280;19470;49.322;7.218;2023-03-31T01:11:57;97882.47;;;15.63;100.00
18275;BME280;19470;49.322;7.218;2023-03-31T01:14:24;97883.13;;;15.22;100.00
18275;BME280;19470;49.322;7.218;2023-03-31T01:16:50;97888.84;;;15.16;100.00
18275;BME280;19470;49.322;7.218;2023-03-31T01:19:29;97879.06;;;15.44;100.00
18275;BME280;19470;49.322;7.218;2023-03-31T01:22:26;97875.09;;;14.90;100.00
18275;BME280;19470;49.322;7.218;2023-03-31T01:25:14;97874.38;;;15.03;100.00
18275;BME280;19470;49.322;7.218;2023-03-31T01:27:53;97870.06;;;14.88;100.00
18275;BME280;19470;49.322;7.218;2023-03-31T01:30:47;97862.28;;;14.54;100.00
18275;BME280;19470;49.322;7.218;2023-03-31T01:33:42;97844.03;;;15.31;100.00
18275;BME280;19470;49.322;7.218;2023-03-31T01:36:27;97846.31;;;15.38;100.00
18275;BME280;19470;49.322;7.218;2023-03-31T01:39:13;97818.25;;;16.15;100.00
18275;BME280;19470;49.322;7.218;2023-03-31T01:41:55;97797.69;;;15.88;100.00
18275;BME280;19470;49.322;7.218;2023-03-31T01:44:30;97786.81;;;15.84;100.00
18275;BME280;19470;49.322;7.218;2023-03-31T01:47:01;97780.75;;;16.20;100.00
18275;BME280;19470;49.322;7.218;2023-03-31T01:49:36;97768.81;;;15.76;100.00
18275;BME280;19470;49.322;7.218;2023-03-31T01:52:11;97760.88;;;15.98;100.00
18275;BME280;19470;49.322;7.218;2023-03-31T01:54:46;97763.47;;;15.76;100.00
18275;BME280;19470;49.322;7.218;2023-03-31T01:57:18;97760.09;;;15.56;100.00
18275;BME280;19470;49.322;7.218;2023-03-31T01:59:51;97752.00;;;15.75;100.00
18275;BME280;19470;49.322;7.218;2023-03-31T02:02:26;97747.88;;;15.69;100.00
18275;BME280;19470;49.322;7.218;2023-03-31T02:04:56;97753.53;;;15.21;100.00
18275;BME280;19470;49.322;7.218;2023-03-31T02:07:28;97736.97;;;15.52;100.00
18275;BME280;19470;49.322;7.218;2023-03-31T02:09:59;97724.16;;;15.81;100.00
18275;BME280;19470;49.322;7.218;2023-03-31T02:12:30;97719.72;;;15.03;100.00
18275;BME280;19470;49.322;7.218;2023-03-31T02:15:00;97714.03;;;15.23;100.00
18275;BME280;19470;49.322;7.218;2023-03-31T02:17:29;97709.50;;;15.65;100.00
18275;BME280;19470;49.322;7.218;2023-03-31T02:20:00;97692.09;;;15.26;100.00
18275;BME280;19470;49.322;7.218;2023-03-31T02:22:33;97691.13;;;15.50;100.00
18275;BME280;19470;49.322;7.218;2023-03-31T02:25:02;97684.59;;;15.28;100.00
18275;BME280;19470;49.322;7.218;2023-03-31T02:27:32;97683.44;;;15.34;100.00
18275;BME280;19470;49.322;7.218;2023-03-31T02:30:00;97668.09;;;15.40;100.00
18275;BME280;19470;49.322;7.218;2023-03-31T02:32:30;97654.25;;;15.66;100.00
18275;BME280;19470;49.322;7.218;2023-03-31T02:34:57;97662.56;;;15.50;100.00
18275;BME280;19470;49.322;7.218;2023-03-31T02:37:25;97655.69;;;14.75;100.00
18275;BME280;19470;49.322;7.218;2023-03-31T02:39:54;97648.66;;;15.40;100.00
18275;BME280;19470;49.322;7.218;2023-03-31T02:42:21;97641.63;;;15.57;100.00
18275;BME280;19470;49.322;7.218;2023-03-31T02:44:49;97613.31;;;15.56;100.00
18275;BME280;19470;49.322;7.218;2023-03-31T02:47:18;97595.81;;;15.78;100.00
18275;BME280;19470;49.322;7.218;2023-03-31T02:49:48;97577.06;;;15.69;100.00
18275;BME280;19470;49.322;7.218;2023-03-31T02:52:31;97554.91;;;15.69;100.00
18275;BME280;19470;49.322;7.218;2023-03-31T02:55:19;97540.50;;;15.56;100.00
18275;BME280;19470;49.322;7.218;2023-03-31T02:58:16;97533.25;;;15.70;100.00
18275;BME280;19470;49.322;7.218;2023-03-31T03:00:58;97527.94;;;15.93;100.00
18275;BME280;19470;49.322;7.218;2023-03-31T03:03:39;97530.84;;;15.82;100.00
18275;BME280;19470;49.322;7.218;2023-03-31T03:06:17;97519.44;;;15.91;100.00
18275;BME280;19470;49.322;7.218;2023-03-31T03:08:57;97509.13;;;15.98;100.00
18275;BME280;19470;49.322;7.218;2023-03-31T03:11:32;97510.31;;;15.33;100.00
18275;BME280;19470;49.322;7.218;2023-03-31T03:14:08;97525.53;;;15.32;100.00
18275;BME280;19470;49.322;7.218;2023-03-31T03:16:42;97512.44;;;15.58;100.00
18275;BME280;19470;49.322;7.218;2023-03-31T03:19:18;97507.28;;;15.84;100.00
18275;BME280;19470;49.322;7.218;2023-03-31T03:21:45;97506.91;;;15.55;100.00
18275;BME280;19470;49.322;7.218;2023-03-31T03:24:12;97505.47;;;15.94;100.00
18275;BME280;19470;49.322;7.218;2023-03-31T03:26:39;97510.16;;;15.88;100.00
18275;BME280;19470;49.322;7.218;2023-03-31T03:29:05;97519.50;;;15.77;100.00
18275;BME280;19470;49.322;7.218;2023-03-31T03:31:32;97525.25;;;15.34;100.00
18275;BME280;19470;49.322;7.218;2023-03-31T03:34:00;97523.34;;;14.85;100.00
18275;BME280;19470;49.322;7.218;2023-03-31T03:36:27;97521.25;;;14.95;100.00
18275;BME280;19470;49.322;7.218;2023-03-31T03:38:53;97525.41;;;15.15;100.00
18275;BME280;19470;49.322;7.218;2023-03-31T03:41:20;97520.88;;;14.88;100.00
18275;BME280;19470;49.322;7.218;2023-03-31T03:43:46;97522.88;;;14.82;100.00
18275;BME280;19470;49.322;7.218;2023-03-31T03:46:13;97523.56;;;14.14;100.00
18275;BME280;19470;49.322;7.218;2023-03-31T03:48:39;97522.66;;;15.06;100.00
18275;BME280;19470;49.322;7.218;2023-03-31T03:51:07;97529.34;;;15.18;100.00
18275;BME280;19470;49.322;7.218;2023-03-31T03:53:34;97521.88;;;14.78;100.00
18275;BME280;19470;49.322;7.218;2023-03-31T03:56:00;97529.34;;;14.90;100.00
18275;BME280;19470;49.322;7.218;2023-03-31T03:58:27;97528.56;;;14.90;100.00
18275;BME280;19470;49.322;7.218;2023-03-31T04:00:54;97518.00;;;15.12;100.00
18275;BME280;19470;49.322;7.218;2023-03-31T04:03:21;97501.47;;;15.10;100.00
18275;BME280;19470;49.322;7.218;2023-03-31T04:05:47;97496.31;;;14.77;100.00
18275;BME280;19470;49.322;7.218;2023-03-31T04:08:16;97491.63;;;15.11;100.00
18275;BME280;19470;49.322;7.218;2023-03-31T04:10:43;97495.38;;;15.46;100.00
18275;BME280;19470;49.322;7.218;2023-03-31T04:13:11;97491.22;;;15.17;100.00
18275;BME280;19470;49.322;7.218;2023-03-31T04:15:37;97500.22;;;15.44;100.00
18275;BME280;19470;49.322;7.218;2023-03-31T04:18:04;97476.88;;;15.49;100.00
18275;BME280;19470;49.322;7.218;2023-03-31T04:20:30;97465.88;;;15.28;100.00
18275;BME280;19470;49.322;7.218;2023-03-31T04:22:57;97446.50;;;15.00;100.00
18275;BME280;19470;49.322;7.218;2023-03-31T04:25:24;97437.72;;;15.36;100.00
18275;BME280;19470;49.322;7.218;2023-03-31T04:27:54;97455.56;;;15.13;100.00
18275;BME280;19470;49.322;7.218;2023-03-31T04:30:22;97451.16;;;15.67;100.00
18275;BME280;19470;49.322;7.218;2023-03-31T04:32:51;97457.03;;;15.78;100.00
18275;BME280;19470;49.322;7.218;2023-03-31T04:35:19;97456.47;;;15.08;100.00
18275;BME280;19470;49.322;7.218;2023-03-31T04:37:46;97443.25;;;15.03;100.00
18275;BME280;19470;49.322;7.218;2023-03-31T04:40:13;97428.88;;;15.49;100.00
18275;BME280;19470;49.322;7.218;2023-03-31T04:42:42;97414.97;;;15.61;100.00
18275;BME280;19470;49.322;7.218;2023-03-31T04:45:10;97404.78;;;15.41;100.00
18275;BME280;19470;49.322;7.218;2023-03-31T04:47:37;97396.59;;;15.15;100.00
18275;BME280;19470;49.322;7.218;2023-03-31T04:50:04;97383.81;;;15.03;100.00
18275;BME280;19470;49.322;7.218;2023-03-31T04:52:31;97359.63;;;15.22;100.00
18275;BME280;19470;49.322;7.218;2023-03-31T04:54:57;97366.84;;;15.44;100.00
18275;BME280;19470;49.322;7.218;2023-03-31T04:57:24;97352.38;;;15.14;100.00
18275;BME280;19470;49.322;7.218;2023-03-31T04:59:52;97336.56;;;15.17;100.00
18275;BME280;19470;49.322;7.218;2023-03-31T05:02:18;97324.69;;;14.78;100.00
18275;BME280;19470;49.322;7.218;2023-03-31T05:04:48;97323.75;;;14.47;100.00
18275;BME280;19470;49.322;7.218;2023-03-31T05:07:15;97304.53;;;14.72;100.00
18275;BME280;19470;49.322;7.218;2023-03-31T05:09:41;97294.63;;;14.87;100.00
18275;BME280;19470;49.322;7.218;2023-03-31T05:12:08;97281.34;;;14.50;100.00
18275;BME280;19470;49.322;7.218;2023-03-31T05:14:34;97281.91;;;14.61;100.00
18275;BME280;19470;49.322;7.218;2023-03-31T05:17:02;97282.38;;;14.27;100.00
18275;BME280;19470;49.322;7.218;2023-03-31T05:22:50;97261.56;;;14.65;100.00
18275;BME280;19470;49.322;7.218;2023-03-31T05:25:17;97256.19;;;15.10;100.00
18275;BME280;19470;49.322;7.218;2023-03-31T05:27:45;97255.22;;;14.75;100.00
18275;BME280;19470;49.322;7.218;2023-03-31T05:30:13;97233.81;;;14.66;100.00
18275;BME280;19470;49.322;7.218;2023-03-31T05:32:41;97240.00;;;14.53;100.00
18275;BME280;19470;49.322;7.218;2023-03-31T05:35:08;97236.31;;;14.63;100.00
18275;BME280;19470;49.322;7.218;2023-03-31T05:37:35;97249.69;;;14.71;100.00
18275;BME280;19470;49.322;7.218;2023-03-31T05:40:02;97244.59;;;14.61;100.00
18275;BME280;19470;49.322;7.218;2023-03-31T05:42:30;97233.34;;;14.64;100.00
18275;BME280;19470;49.322;7.218;2023-03-31T05:44:56;97231.03;;;14.71;100.00
18275;BME280;19470;49.322;7.218;2023-03-31T05:47:23;97234.94;;;14.15;100.00
18275;BME280;19470;49.322;7.218;2023-03-31T05:49:51;97243.16;;;14.77;100.00
18275;BME280;19470;49.322;7.218;2023-03-31T05:52:17;97234.66;;;14.75;100.00
18275;BME280;19470;49.322;7.218;2023-03-31T05:54:44;97248.19;;;14.43;100.00
18275;BME280;19470;49.322;7.218;2023-03-31T05:57:11;97241.38;;;14.14;100.00
18275;BME280;19470;49.322;7.218;2023-03-31T05:59:37;97213.66;;;15.05;100.00
18275;BME280;19470;49.322;7.218;2023-03-31T06:02:07;97233.78;;;14.44;100.00
18275;BME280;19470;49.322;7.218;2023-03-31T06:04:33;97250.47;;;14.49;100.00
18275;BME280;19470;49.322;7.218;2023-03-31T06:07:02;97266.78;;;14.70;100.00
18275;BME280;19470;49.322;7.218;2023-03-31T06:09:29;97266.16;;;14.51;100.00
18275;BME280;19470;49.322;7.218;2023-03-31T06:11:56;97244.34;;;14.94;100.00
18275;BME280;19470;49.322;7.218;2023-03-31T06:14:22;97242.72;;;14.84;100.00
18275;BME280;19470;49.322;7.218;2023-03-31T06:16:49;97257.25;;;14.55;100.00
18275;BME280;19470;49.322;7.218;2023-03-31T06:19:15;97250.53;;;15.03;100.00
18275;BME280;19470;49.322;7.218;2023-03-31T06:21:42;97252.91;;;14.82;100.00
18275;BME280;19470;49.322;7.218;2023-03-31T06:24:09;97228.63;;;15.15;100.00
18275;BME280;19470;49.322;7.218;2023-03-31T06:26:36;97231.19;;;15.20;100.00
18275;BME280;19470;49.322;7.218;2023-03-31T06:29:02;97253.63;;;15.27;100.00
18275;BME280;19470;49.322;7.218;2023-03-31T06:31:29;97272.38;;;15.45;100.00
18275;BME280;19470;49.322;7.218;2023-03-31T06:33:56;97265.84;;;15.91;100.00
18275;BME280;19470;49.322;7.218;2023-03-31T06:36:23;97252.09;;;15.04;100.00
18275;BME280;19470;49.322;7.218;2023-03-31T06:38:49;97249.91;;;15.06;100.00
18275;BME280;19470;49.322;7.218;2023-03-31T06:41:17;97254.34;;;15.50;100.00
18275;BME280;19470;49.322;7.218;2023-03-31T06:43:46;97244.41;;;15.65;100.00
18275;BME280;19470;49.322;7.218;2023-03-31T06:46:13;97251.53;;;15.16;100.00
18275;BME280;19470;49.322;7.218;2023-03-31T06:48:39;97238.34;;;15.50;100.00
18275;BME280;19470;49.322;7.218;2023-03-31T06:51:08;97234.25;;;15.13;100.00
18275;BME280;19470;49.322;7.218;2023-03-31T06:53:35;97247.28;;;15.46;100.00
18275;BME280;19470;49.322;7.218;2023-03-31T06:56:02;97230.13;;;15.38;100.00
18275;BME280;19470;49.322;7.218;2023-03-31T06:58:31;97231.78;;;15.56;100.00
18275;BME280;19470;49.322;7.218;2023-03-31T07:01:00;97235.47;;;15.38;100.00
18275;BME280;19470;49.322;7.218;2023-03-31T07:03:27;97239.22;;;15.68;100.00
18275;BME280;19470;49.322;7.218;2023-03-31T07:05:54;97239.50;;;15.58;100.00
18275;BME280;19470;49.322;7.218;2023-03-31T07:08:21;97233.00;;;15.81;100.00
18275;BME280;19470;49.322;7.218;2023-03-31T07:11:03;97247.28;;;14.83;100.00
18275;BME280;19470;49.322;7.218;2023-03-31T07:13:31;97236.47;;;15.51;100.00
18275;BME280;19470;49.322;7.218;2023-03-31T07:15:57;97250.72;;;15.06;100.00
18275;BME280;19470;49.322;7.218;2023-03-31T07:18:24;97244.34;;;15.56;100.00
18275;BME280;19470;49.322;7.218;2023-03-31T07:20:56;97246.75;;;15.66;100.00
18275;BME280;19470;49.322;7.218;2023-03-31T07:23:23;97251.88;;;16.11;100.00
18275;BME280;19470;49.322;7.218;2023-03-31T07:25:49;97247.06;;;15.65;100.00
18275;BME280;19470;49.322;7.218;2023-03-31T07:28:16;97245.41;;;15.95;100.00
18275;BME280;19470;49.322;7.218;2023-03-31T07:30:44;97244.03;;;16.06;100.00
18275;BME280;19470;49.322;7.218;2023-03-31T07:33:10;97240.09;;;16.12;100.00
18275;BME280;19470;49.322;7.218;2023-03-31T07:35:38;97240.34;;;15.84;100.00
18275;BME280;19470;49.322;7.218;2023-03-31T07:38:04;97240.28;;;16.42;100.00
18275;BME280;19470;49.322;7.218;2023-03-31T07:40:32;97231.63;;;16.10;100.00
18275;BME280;19470;49.322;7.218;2023-03-31T07:42:59;97231.28;;;15.86;100.00
18275;BME280;19470;49.322;7.218;2023-03-31T07:45:26;97234.69;;;15.69;100.00
18275;BME280;19470;49.322;7.218;2023-03-31T07:47:54;97236.97;;;15.53;100.00
18275;BME280;19470;49.322;7.218;2023-03-31T07:50:21;97239.06;;;15.65;100.00
18275;BME280;19470;49.322;7.218;2023-03-31T07:52:48;97234.16;;;16.15;100.00
18275;BME280;19470;49.322;7.218;2023-03-31T07:55:15;97235.50;;;15.87;100.00
18275;BME280;19470;49.322;7.218;2023-03-31T07:57:41;97216.84;;;15.47;100.00
18275;BME280;19470;49.322;7.218;2023-03-31T08:00:11;97239.56;;;15.75;100.00
18275;BME280;19470;49.322;7.218;2023-03-31T08:02:38;97232.66;;;14.81;100.00
18275;BME280;19470;49.322;7.218;2023-03-31T08:05:08;97228.31;;;14.85;100.00
18275;BME280;19470;49.322;7.218;2023-03-31T08:07:36;97187.50;;;14.31;100.00
18275;BME280;19470;49.322;7.218;2023-03-31T08:10:05;97208.66;;;14.36;100.00
18275;BME280;19470;49.322;7.218;2023-03-31T08:12:32;97192.38;;;14.38;100.00
18275;BME280;19470;49.322;7.218;2023-03-31T08:14:58;97214.16;;;14.17;100.00
18275;BME280;19470;49.322;7.218;2023-03-31T08:17:25;97208.09;;;14.25;100.00
18275;BME280;19470;49.322;7.218;2023-03-31T08:19:51;97201.13;;;15.76;100.00
18275;BME280;19470;49.322;7.218;2023-03-31T08:22:20;97219.34;;;14.81;100.00
18275;BME280;19470;49.322;7.218;2023-03-31T08:24:47;97288.34;;;13.55;100.00
18275;BME280;19470;49.322;7.218;2023-03-31T08:27:14;97234.22;;;13.73;100.00
18275;BME280;19470;49.322;7.218;2023-03-31T08:29:41;97232.41;;;14.10;100.00
18275;BME280;19470;49.322;7.218;2023-03-31T08:32:07;97222.47;;;14.38;100.00
18275;BME280;19470;49.322;7.218;2023-03-31T08:34:34;97229.91;;;15.17;100.00
18275;BME280;19470;49.322;7.218;2023-03-31T08:37:00;97235.66;;;14.79;100.00
18275;BME280;19470;49.322;7.218;2023-03-31T08:39:28;97232.97;;;13.71;100.00
18275;BME280;19470;49.322;7.218;2023-03-31T08:41:57;97208.22;;;14.79;100.00
18275;BME280;19470;49.322;7.218;2023-03-31T08:44:29;97205.69;;;14.38;100.00
18275;BME280;19470;49.322;7.218;2023-03-31T08:46:58;97221.63;;;13.93;100.00
18275;BME280;19470;49.322;7.218;2023-03-31T08:49:25;97234.72;;;14.25;100.00
18275;BME280;19470;49.322;7.218;2023-03-31T08:51:55;97200.91;;;13.90;100.00
18275;BME280;19470;49.322;7.218;2023-03-31T08:54:30;97192.25;;;14.43;100.00
18275;BME280;19470;49.322;7.218;2023-03-31T08:56:58;97192.09;;;14.84;100.00
18275;BME280;19470;49.322;7.218;2023-03-31T08:59:27;97198.59;;;15.00;100.00
18275;BME280;19470;49.322;7.218;2023-03-31T09:01:59;97214.44;;;14.74;100.00
18275;BME280;19470;49.322;7.218;2023-03-31T09:04:53;97224.78;;;14.98;100.00
18275;BME280;19470;49.322;7.218;2023-03-31T09:07:29;97205.97;;;15.34;100.00
18275;BME280;19470;49.322;7.218;2023-03-31T09:10:16;97200.66;;;16.09;100.00
18275;BME280;19470;49.322;7.218;2023-03-31T09:12:52;97199.44;;;16.15;100.00
18275;BME280;19470;49.322;7.218;2023-03-31T09:15:25;97199.75;;;16.40;100.00
18275;BME280;19470;49.322;7.218;2023-03-31T09:17:54;97196.25;;;15.78;100.00
18275;BME280;19470;49.322;7.218;2023-03-31T09:20:25;97188.41;;;15.82;100.00
18275;BME280;19470;49.322;7.218;2023-03-31T09:23:00;97200.69;;;15.52;100.00
18275;BME280;19470;49.322;7.218;2023-03-31T09:25:31;97188.41;;;15.82;100.00
18275;BME280;19470;49.322;7.218;2023-03-31T09:28:01;97172.03;;;15.66;100.00
18275;BME280;19470;49.322;7.218;2023-03-31T09:30:30;97173.97;;;16.52;100.00
18275;BME280;19470;49.322;7.218;2023-03-31T09:33:03;97172.75;;;15.49;100.00
18275;BME280;19470;49.322;7.218;2023-03-31T09:35:35;97170.19;;;16.36;100.00
18275;BME280;19470;49.322;7.218;2023-03-31T09:38:02;97177.63;;;15.56;100.00
18275;BME280;19470;49.322;7.218;2023-03-31T09:40:30;97173.50;;;15.81;100.00
18275;BME280;19470;49.322;7.218;2023-03-31T09:42:59;97169.22;;;15.71;100.00
18275;BME280;19470;49.322;7.218;2023-03-31T09:45:26;97157.00;;;16.31;100.00
18275;BME280;19470;49.322;7.218;2023-03-31T09:47:57;97154.50;;;16.34;100.00
18275;BME280;19470;49.322;7.218;2023-03-31T09:50:25;97162.34;;;16.40;100.00
18275;BME280;19470;49.322;7.218;2023-03-31T09:52:55;97153.31;;;15.57;100.00
18275;BME280;19470;49.322;7.218;2023-03-31T09:55:25;97152.88;;;15.64;100.00
18275;BME280;19470;49.322;7.218;2023-03-31T09:57:54;97169.28;;;16.06;100.00
18275;BME280;19470;49.322;7.218;2023-03-31T10:00:21;97153.63;;;15.56;100.00
18275;BME280;19470;49.322;7.218;2023-03-31T10:02:49;97166.22;;;14.85;100.00
18275;BME280;19470;49.322;7.218;2023-03-31T10:05:28;97155.34;;;14.27;100.00
18275;BME280;19470;49.322;7.218;2023-03-31T10:08:13;97156.59;;;15.54;100.00
18275;BME280;19470;49.322;7.218;2023-03-31T10:10:48;97151.81;;;15.82;100.00
18275;BME280;19470;49.322;7.218;2023-03-31T10:13:19;97148.47;;;16.72;99.03
18275;BME280;19470;49.322;7.218;2023-03-31T10:15:51;97155.44;;;16.13;100.00
18275;BME280;19470;49.322;7.218;2023-03-31T10:18:19;97146.75;;;16.59;100.00
18275;BME280;19470;49.322;7.218;2023-03-31T10:20:48;97140.81;;;15.84;100.00
18275;BME280;19470;49.322;7.218;2023-03-31T10:23:17;97123.09;;;17.84;92.49
18275;BME280;19470;49.322;7.218;2023-03-31T10:25:49;97129.91;;;16.84;100.00
18275;BME280;19470;49.322;7.218;2023-03-31T10:28:18;97147.63;;;18.28;86.43
18275;BME280;19470;49.322;7.218;2023-03-31T10:30:47;97131.25;;;17.58;91.42
18275;BME280;19470;49.322;7.218;2023-03-31T10:33:16;97138.97;;;17.60;89.86
18275;BME280;19470;49.322;7.218;2023-03-31T10:35:46;97113.84;;;17.23;89.83
18275;BME280;19470;49.322;7.218;2023-03-31T10:38:23;97138.53;;;17.28;88.93
18275;BME280;19470;49.322;7.218;2023-03-31T10:40:52;97106.31;;;17.75;86.59
18275;BME280;19470;49.322;7.218;2023-03-31T10:43:25;97127.75;;;17.07;86.58
18275;BME280;19470;49.322;7.218;2023-03-31T10:45:53;97117.81;;;17.67;89.68
18275;BME280;19470;49.322;7.218;2023-03-31T10:48:24;97141.91;;;17.46;88.09
18275;BME280;19470;49.322;7.218;2023-03-31T10:50:51;97152.06;;;16.68;90.18
18275;BME280;19470;49.322;7.218;2023-03-31T10:53:18;97138.13;;;17.09;87.97
18275;BME280;19470;49.322;7.218;2023-03-31T10:55:55;97160.56;;;17.84;85.78
18275;BME280;19470;49.322;7.218;2023-03-31T10:58:36;97131.50;;;18.95;78.52
18275;BME280;19470;49.322;7.218;2023-03-31T11:01:17;97152.69;;;18.42;77.44
18275;BME280;19470;49.322;7.218;2023-03-31T11:04:06;97124.59;;;17.14;83.76
18275;BME280;19470;49.322;7.218;2023-03-31T11:06:48;97158.53;;;16.58;81.24
18275;BME280;19470;49.322;7.218;2023-03-31T11:09:32;97179.31;;;16.44;86.23
18275;BME280;19470;49.322;7.218;2023-03-31T11:12:07;97141.94;;;15.92;90.89
18275;BME280;19470;49.322;7.218;2023-03-31T11:14:49;97160.09;;;16.59;88.05
18275;BME280;19470;49.322;7.218;2023-03-31T11:17:28;97168.53;;;19.38;75.29
18275;BME280;19470;49.322;7.218;2023-03-31T11:20:04;97138.22;;;17.21;80.42
18275;BME280;19470;49.322;7.218;2023-03-31T11:22:43;97182.69;;;18.77;72.95
18275;BME280;19470;49.322;7.218;2023-03-31T11:25:22;97154.53;;;19.94;66.39
18275;BME280;19470;49.322;7.218;2023-03-31T11:28:02;97142.28;;;19.44;66.97
18275;BME280;19470;49.322;7.218;2023-03-31T11:30:42;97141.19;;;17.28;74.98
18275;BME280;19470;49.322;7.218;2023-03-31T11:33:25;97105.28;;;17.59;74.85
18275;BME280;19470;49.322;7.218;2023-03-31T11:36:02;97133.19;;;17.49;75.94
18275;BME280;19470;49.322;7.218;2023-03-31T11:38:46;97138.44;;;17.46;74.68
18275;BME280;19470;49.322;7.218;2023-03-31T11:41:18;97148.19;;;17.12;76.78
18275;BME280;19470;49.322;7.218;2023-03-31T11:43:47;97124.69;;;19.58;63.95
18275;BME280;19470;49.322;7.218;2023-03-31T11:46:20;97122.78;;;19.83;65.43
18275;BME280;19470;49.322;7.218;2023-03-31T11:48:51;97116.59;;;20.23;64.88
18275;BME280;19470;49.322;7.218;2023-03-31T11:51:24;97144.28;;;19.59;65.82
18275;BME280;19470;49.322;7.218;2023-03-31T11:53:53;97111.59;;;18.71;68.73
18275;BME280;19470;49.322;7.218;2023-03-31T11:56:22;97106.28;;;19.20;68.33
18275;BME280;19470;49.322;7.218;2023-03-31T11:58:52;97093.16;;;18.03;74.08
18275;BME280;19470;49.322;7.218;2023-03-31T12:01:24;97114.19;;;19.41;68.71
18275;BME280;19470;49.322;7.218;2023-03-31T12:04:00;97104.22;;;20.34;65.42
18275;BME280;19470;49.322;7.218;2023-03-31T12:06:31;97146.81;;;19.92;65.56
18275;BME280;19470;49.322;7.218;2023-03-31T12:09:09;97114.97;;;18.80;70.06
18275;BME280;19470;49.322;7.218;2023-03-31T12:11:42;97097.53;;;18.08;74.51
18275;BME280;19470;49.322;7.218;2023-03-31T12:14:20;97094.78;;;17.96;75.74
18275;BME280;19470;49.322;7.218;2023-03-31T12:16:51;97081.19;;;16.70;82.49
18275;BME280;19470;49.322;7.218;2023-03-31T12:19:21;97085.09;;;16.64;83.04
18275;BME280;19470;49.322;7.218;2023-03-31T12:21:54;97071.72;;;17.61;79.57
18275;BME280;19470;49.322;7.218;2023-03-31T12:24:21;97081.19;;;17.59;78.96
18275;BME280;19470;49.322;7.218;2023-03-31T12:26:56;97070.53;;;17.00;82.58
18275;BME280;19470;49.322;7.218;2023-03-31T12:29:29;97071.59;;;17.37;82.36
18275;BME280;19470;49.322;7.218;2023-03-31T12:32:02;97092.22;;;17.36;81.67
18275;BME280;19470;49.322;7.218;2023-03-31T12:34:31;97092.25;;;16.43;90.72
18275;BME280;19470;49.322;7.218;2023-03-31T12:37:17;97069.84;;;16.73;87.76
18275;BME280;19470;49.322;7.218;2023-03-31T12:39:56;97077.19;;;17.23;85.37
18275;BME280;19470;49.322;7.218;2023-03-31T12:42:38;97055.47;;;16.40;88.62
18275;BME280;19470;49.322;7.218;2023-03-31T12:45:14;97076.03;;;16.56;93.56
18275;BME280;19470;49.322;7.218;2023-03-31T12:47:55;97060.75;;;15.75;96.43
18275;BME280;19470;49.322;7.218;2023-03-31T12:53:25;97081.28;;;16.18;97.32
18275;BME280;19470;49.322;7.218;2023-03-31T12:55:55;97062.75;;;15.61;100.00
18275;BME280;19470;49.322;7.218;2023-03-31T12:58:43;97078.16;;;15.99;100.00
18275;BME280;19470;49.322;7.218;2023-03-31T13:01:15;97061.50;;;15.50;100.00
18275;BME280;19470;49.322;7.218;2023-03-31T13:03:46;97071.09;;;16.03;100.00
18275;BME280;19470;49.322;7.218;2023-03-31T13:06:47;97041.84;;;16.79;94.79
18275;BME280;19470;49.322;7.218;2023-03-31T13:09:47;97046.78;;;17.49;87.56
18275;BME280;19470;49.322;7.218;2023-03-31T13:12:19;97036.44;;;19.97;74.96
18275;BME280;19470;49.322;7.218;2023-03-31T13:14:48;97023.97;;;20.49;73.04
18275;BME280;19470;49.322;7.218;2023-03-31T13:17:23;97040.63;;;20.70;69.15
18275;BME280;19470;49.322;7.218;2023-03-31T13:19:53;97028.66;;;19.39;75.53
18275;BME280;19470;49.322;7.218;2023-03-31T13:22:29;97028.16;;;18.97;75.88